createdAt,value
2023-01-09T00:00:05.819Z,7.72
2023-01-09T00:02:29.098Z,7.72
2023-01-09T00:04:31.882Z,7.72
2023-01-09T00:06:35.902Z,7.75
2023-01-09T00:08:38.587Z,7.76
2023-01-09T00:10:41.301Z,7.78
2023-01-09T00:12:50.994Z,7.79
2023-01-09T00:14:58.242Z,7.75
2023-01-09T00:17:01.089Z,7.71
2023-01-09T00:19:03.911Z,7.68
2023-01-09T00:21:09.137Z,7.69
2023-01-09T00:23:11.920Z,7.68
2023-01-09T00:25:14.627Z,7.68
2023-01-09T00:27:17.400Z,7.68
2023-01-09T00:29:20.127Z,7.66
2023-01-09T00:31:22.738Z,7.65
2023-01-09T00:33:39.211Z,7.65
2023-01-09T00:35:41.988Z,7.67
2023-01-09T00:37:44.738Z,7.70
2023-01-09T00:39:47.823Z,7.71
2023-01-09T00:41:56.541Z,7.68
2023-01-09T00:44:07.134Z,7.68
2023-01-09T00:46:11.074Z,7.68
2023-01-09T00:48:25.006Z,7.68
2023-01-09T00:50:31.837Z,7.67
2023-01-09T00:52:37.942Z,7.66
2023-01-09T00:54:42.627Z,7.63
2023-01-09T00:56:46.082Z,7.61
2023-01-09T00:58:52.377Z,7.62
2023-01-09T01:00:54.985Z,7.64
2023-01-09T01:02:58.023Z,7.64
2023-01-09T01:05:20.927Z,7.66
2023-01-09T01:07:42.842Z,7.63
2023-01-09T01:09:45.442Z,7.61
2023-01-09T01:11:48.018Z,7.62
2023-01-09T01:13:50.975Z,7.63
2023-01-09T01:15:53.528Z,7.65
2023-01-09T01:17:56.109Z,7.64
2023-01-09T01:19:59.897Z,7.61
2023-01-09T01:22:06.389Z,7.60
2023-01-09T01:24:09.170Z,7.63
2023-01-09T01:26:15.231Z,7.66
2023-01-09T01:28:17.890Z,7.65
2023-01-09T01:30:21.622Z,7.64
2023-01-09T01:32:24.666Z,7.66
2023-01-09T01:34:29.728Z,7.68
2023-01-09T01:36:34.553Z,7.70
2023-01-09T01:38:37.420Z,7.68
2023-01-09T01:40:42.616Z,7.70
2023-01-09T01:42:47.631Z,7.69
2023-01-09T01:45:00.052Z,7.71
2023-01-09T01:47:02.841Z,7.72
2023-01-09T01:49:12.983Z,7.71
2023-01-09T01:51:18.528Z,7.72
2023-01-09T01:53:33.567Z,7.72
2023-01-09T01:55:40.064Z,7.72
2023-01-09T01:57:48.314Z,7.71
2023-01-09T01:59:56.239Z,7.72
2023-01-09T02:02:02.096Z,7.73
2023-01-09T02:04:05.391Z,7.72
2023-01-09T02:06:09.563Z,7.72
2023-01-09T02:08:12.859Z,7.75
2023-01-09T02:10:15.826Z,7.78
2023-01-09T02:12:26.059Z,7.85
2023-01-09T02:14:32.023Z,7.92
2023-01-09T02:16:51.976Z,8.00
2023-01-09T02:19:25.141Z,8.06
2023-01-09T02:21:40.061Z,8.10
2023-01-09T02:24:11.397Z,8.13
2023-01-09T02:26:35.219Z,8.18
2023-01-09T02:28:59.845Z,8.24
2023-01-09T02:31:13.883Z,8.30
2023-01-09T02:33:40.611Z,8.37
2023-01-09T02:36:31.292Z,8.39
2023-01-09T02:39:07.757Z,8.32
2023-01-09T02:41:23.961Z,8.26
2023-01-09T02:43:27.174Z,8.26
2023-01-09T02:45:29.845Z,8.27
2023-01-09T02:47:43.777Z,8.33
2023-01-09T02:49:56.602Z,8.37
2023-01-09T02:52:29.069Z,8.43
2023-01-09T02:54:42.674Z,8.47
2023-01-09T02:57:06.210Z,8.50
2023-01-09T02:59:27.983Z,8.51
2023-01-09T03:01:36.788Z,8.52
2023-01-09T03:03:59.109Z,8.52
2023-01-09T03:06:17.286Z,8.52
2023-01-09T03:08:45.743Z,8.52
2023-01-09T03:11:07.755Z,8.52
2023-01-09T03:13:14.275Z,8.54
2023-01-09T03:15:21.341Z,8.57
2023-01-09T03:17:45.455Z,8.60
2023-01-09T03:19:50.573Z,8.63
2023-01-09T03:21:55.216Z,8.64
2023-01-09T03:24:00.561Z,8.64
2023-01-09T03:26:03.153Z,8.65
2023-01-09T03:28:09.175Z,8.65
2023-01-09T03:30:12.661Z,8.65
2023-01-09T03:32:17.043Z,8.64
2023-01-09T03:34:19.687Z,8.61
2023-01-09T03:36:24.093Z,8.60
2023-01-09T03:38:26.568Z,8.61
2023-01-09T03:40:29.175Z,8.61
2023-01-09T03:42:31.938Z,8.63
2023-01-09T03:44:34.578Z,8.63
2023-01-09T03:46:37.426Z,8.64
2023-01-09T03:48:40.394Z,8.66
2023-01-09T03:50:45.884Z,8.69
2023-01-09T03:52:48.497Z,8.70
2023-01-09T03:54:51.619Z,8.70
2023-01-09T03:56:54.271Z,8.71
2023-01-09T03:58:56.955Z,8.69
2023-01-09T04:01:02.227Z,8.66
2023-01-09T04:03:05.738Z,8.67
2023-01-09T04:05:09.045Z,8.69
2023-01-09T04:07:12.012Z,8.70
2023-01-09T04:09:14.632Z,8.71
2023-01-09T04:11:18.189Z,8.70
2023-01-09T04:13:20.874Z,8.71
2023-01-09T04:15:24.899Z,8.72
2023-01-09T04:17:27.793Z,8.70
2023-01-09T04:19:30.763Z,8.68
2023-01-09T04:21:36.023Z,8.68
2023-01-09T04:23:42.806Z,8.66
2023-01-09T04:25:50.293Z,8.62
2023-01-09T04:27:53.759Z,8.58
2023-01-09T04:29:57.144Z,8.57
2023-01-09T04:31:59.967Z,8.56
2023-01-09T04:34:02.676Z,8.59
2023-01-09T04:36:07.052Z,8.62
2023-01-09T04:38:10.145Z,8.65
2023-01-09T04:40:14.806Z,8.66
2023-01-09T04:42:17.697Z,8.68
2023-01-09T04:44:23.071Z,8.68
2023-01-09T04:46:25.835Z,8.69
2023-01-09T04:48:28.616Z,8.68
2023-01-09T04:50:37.189Z,8.66
2023-01-09T04:52:40.666Z,8.65
2023-01-09T04:54:43.610Z,8.67
2023-01-09T04:56:47.173Z,8.71
2023-01-09T04:58:50.217Z,8.71
2023-01-09T05:00:56.209Z,8.71
2023-01-09T05:02:59.073Z,8.69
2023-01-09T05:05:02.163Z,8.69
2023-01-09T05:07:05.139Z,8.67
2023-01-09T05:09:07.914Z,8.67
2023-01-09T05:11:10.658Z,8.67
2023-01-09T05:13:14.027Z,8.66
2023-01-09T05:15:16.932Z,8.62
2023-01-09T05:17:21.103Z,8.60
2023-01-09T05:19:24.493Z,8.59
2023-01-09T05:21:29.848Z,8.59
2023-01-09T05:23:33.633Z,8.60
2023-01-09T05:25:36.494Z,8.60
2023-01-09T05:27:39.813Z,8.59
2023-01-09T05:29:43.012Z,8.59
2023-01-09T05:31:48.779Z,8.60
2023-01-09T05:33:51.964Z,8.60
2023-01-09T05:35:54.667Z,8.58
2023-01-09T05:37:57.604Z,8.56
2023-01-09T05:40:00.683Z,8.53
2023-01-09T05:42:03.402Z,8.53
2023-01-09T05:44:06.400Z,8.55
2023-01-09T05:46:09.292Z,8.57
2023-01-09T05:48:12.294Z,8.58
2023-01-09T05:50:16.495Z,8.60
2023-01-09T05:52:21.550Z,8.63
2023-01-09T05:54:26.188Z,8.65
2023-01-09T05:56:30.080Z,8.64
2023-01-09T05:58:32.680Z,8.63
2023-01-09T06:00:36.061Z,8.63
2023-01-09T06:02:39.055Z,8.62
2023-01-09T06:04:44.329Z,8.62
2023-01-09T06:06:47.084Z,8.63
2023-01-09T06:08:50.164Z,8.62
2023-01-09T06:10:52.840Z,8.63
2023-01-09T06:12:55.912Z,8.63
2023-01-09T06:14:58.659Z,8.63
2023-01-09T06:17:02.296Z,8.63
2023-01-09T06:19:05.968Z,8.64
2023-01-09T06:21:09.011Z,8.62
2023-01-09T06:23:13.457Z,8.61
2023-01-09T06:25:17.206Z,8.62
2023-01-09T06:27:19.885Z,8.63
2023-01-09T06:29:22.554Z,8.64
2023-01-09T06:31:25.876Z,8.62
2023-01-09T06:33:28.746Z,8.61
2023-01-09T06:35:31.394Z,8.59
2023-01-09T06:37:34.334Z,8.55
2023-01-09T06:39:37.726Z,8.51
2023-01-09T06:41:40.536Z,8.50
2023-01-09T06:43:43.558Z,8.47
2023-01-09T06:45:46.455Z,8.45
2023-01-09T06:47:50.161Z,8.44
2023-01-09T06:49:57.687Z,8.43
2023-01-09T06:52:05.717Z,8.41
2023-01-09T06:54:09.031Z,8.40
2023-01-09T06:56:11.815Z,8.40
2023-01-09T06:58:15.336Z,8.39
2023-01-09T07:02:41.632Z,8.37
2023-01-09T07:04:44.612Z,8.37
2023-01-09T07:06:51.016Z,8.36
2023-01-09T07:08:53.795Z,8.38
2023-01-09T07:10:56.524Z,8.39
2023-01-09T07:12:59.786Z,8.40
2023-01-09T07:15:02.616Z,8.39
2023-01-09T07:17:07.288Z,8.38
2023-01-09T07:19:09.968Z,8.37
2023-01-09T07:21:14.111Z,8.35
2023-01-09T07:23:18.741Z,8.33
2023-01-09T07:25:21.735Z,8.30
2023-01-09T07:27:25.618Z,8.28
2023-01-09T07:29:28.214Z,8.28
2023-01-09T07:31:37.825Z,8.31
2023-01-09T07:33:41.830Z,8.31
2023-01-09T07:35:49.567Z,8.28
2023-01-09T07:37:52.756Z,8.26
2023-01-09T07:39:56.329Z,8.18
2023-01-09T07:41:59.056Z,8.08
2023-01-09T07:44:01.765Z,8.02
2023-01-09T07:46:07.453Z,8.00
2023-01-09T07:48:18.570Z,8.03
2023-01-09T07:50:26.260Z,8.07
2023-01-09T07:52:29.756Z,8.13
2023-01-09T07:54:32.610Z,8.17
2023-01-09T07:56:38.956Z,8.19
2023-01-09T07:58:41.679Z,8.20
2023-01-09T08:00:44.509Z,8.18
2023-01-09T08:03:04.857Z,8.19
2023-01-09T08:05:15.810Z,8.13
2023-01-09T08:07:22.999Z,8.07
2023-01-09T08:11:48.508Z,8.04
2023-01-09T08:13:55.952Z,8.06
2023-01-09T08:15:59.230Z,8.10
2023-01-09T08:18:04.301Z,8.09
2023-01-09T08:20:14.372Z,8.09
2023-01-09T08:22:21.434Z,8.06
2023-01-09T08:24:24.000Z,8.04
2023-01-09T08:26:28.763Z,8.03
2023-01-09T08:28:32.182Z,7.98
2023-01-09T08:30:35.634Z,7.94
2023-01-09T08:32:38.458Z,7.92
2023-01-09T08:34:41.283Z,7.94
2023-01-09T08:36:43.938Z,7.97
2023-01-09T08:38:47.052Z,7.98
2023-01-09T08:40:50.059Z,8.01
2023-01-09T08:43:11.633Z,8.00
2023-01-09T08:45:34.555Z,7.97
2023-01-09T08:49:53.751Z,7.97
2023-01-09T08:51:59.183Z,7.95
2023-01-09T08:54:01.885Z,7.94
2023-01-09T08:56:11.531Z,7.94
2023-01-09T08:58:14.986Z,7.95
2023-01-09T09:00:20.348Z,7.96
2023-01-09T09:02:33.861Z,7.99
2023-01-09T09:04:41.753Z,8.00
2023-01-09T09:06:44.465Z,7.99
2023-01-09T09:08:47.044Z,7.95
2023-01-09T09:10:51.712Z,7.96
2023-01-09T09:13:03.955Z,7.96
2023-01-09T09:15:16.193Z,7.95
2023-01-09T09:17:18.795Z,7.93
2023-01-09T09:19:21.821Z,7.90
2023-01-09T09:21:24.343Z,7.88
2023-01-09T09:23:27.265Z,7.89
2023-01-09T09:25:30.633Z,7.88
2023-01-09T09:27:36.976Z,7.87
2023-01-09T09:29:42.148Z,7.88
2023-01-09T09:31:44.848Z,7.91
2023-01-09T09:33:47.902Z,7.93
2023-01-09T09:35:53.568Z,7.92
2023-01-09T09:38:04.953Z,7.91
2023-01-09T09:40:20.246Z,7.88
2023-01-09T09:43:09.641Z,7.87
2023-01-09T09:45:18.335Z,7.87
2023-01-09T09:47:26.930Z,7.87
2023-01-09T09:49:51.302Z,7.85
2023-01-09T09:52:09.817Z,7.83
2023-01-09T09:54:20.786Z,7.85
2023-01-09T09:56:24.411Z,7.86
2023-01-09T09:58:42.589Z,7.87
2023-01-09T10:00:45.595Z,7.91
2023-01-09T10:03:01.055Z,7.93
2023-01-09T10:05:17.240Z,7.97
2023-01-09T10:07:27.902Z,7.99
2023-01-09T10:09:46.557Z,8.01
2023-01-09T10:11:55.342Z,8.01
2023-01-09T10:14:23.725Z,7.99
2023-01-09T10:17:08.522Z,7.97
2023-01-09T10:19:32.940Z,7.96
2023-01-09T10:21:51.261Z,7.98
2023-01-09T10:24:13.610Z,8.01
2023-01-09T10:26:35.450Z,8.01
2023-01-09T10:29:03.182Z,8.01
2023-01-09T10:31:31.605Z,7.99
2023-01-09T10:36:11.992Z,7.99
2023-01-09T10:38:23.229Z,7.99
2023-01-09T10:40:32.046Z,7.98
2023-01-09T10:42:44.657Z,7.97
2023-01-09T10:45:17.714Z,7.99
2023-01-09T10:47:34.559Z,8.02
2023-01-09T10:49:38.699Z,8.05
2023-01-09T10:51:49.240Z,8.05
2023-01-09T10:53:54.700Z,8.05
2023-01-09T10:56:37.231Z,8.06
2023-01-09T10:58:40.036Z,8.07
2023-01-09T11:00:43.690Z,8.07
2023-01-09T11:02:47.495Z,8.04
2023-01-09T11:04:50.077Z,8.03
2023-01-09T11:06:58.723Z,8.00
2023-01-09T11:09:02.099Z,7.96
2023-01-09T11:11:04.845Z,7.99
2023-01-09T11:13:15.395Z,7.99
2023-01-09T11:15:23.703Z,8.01
2023-01-09T11:17:27.424Z,8.01
2023-01-09T11:19:33.652Z,8.01
2023-01-09T11:21:39.506Z,8.04
2023-01-09T11:23:42.440Z,8.05
2023-01-09T11:25:54.063Z,8.05
2023-01-09T11:28:12.108Z,8.04
2023-01-09T11:30:27.019Z,8.06
2023-01-09T11:32:29.836Z,8.04
2023-01-09T11:34:36.115Z,8.05
2023-01-09T11:36:38.973Z,8.09
2023-01-09T11:38:58.179Z,8.17
2023-01-09T11:41:04.502Z,8.20
2023-01-09T11:43:15.859Z,8.21
2023-01-09T11:45:22.181Z,8.21
2023-01-09T11:47:35.622Z,8.22
2023-01-09T11:49:38.781Z,8.20
2023-01-09T11:51:43.148Z,8.20
2023-01-09T11:54:03.009Z,8.21
2023-01-09T11:56:08.754Z,8.20
2023-01-09T11:58:21.831Z,8.20
2023-01-09T12:00:27.681Z,8.19
2023-01-09T12:03:06.522Z,8.15
2023-01-09T12:05:21.716Z,8.15
2023-01-09T12:07:52.073Z,8.16
2023-01-09T12:10:09.734Z,8.16
2023-01-09T12:12:37.772Z,8.17
2023-01-09T12:15:10.105Z,8.17
2023-01-09T12:17:27.952Z,8.18
2023-01-09T12:20:02.533Z,8.19
2023-01-09T12:22:17.889Z,8.20
2023-01-09T12:24:53.298Z,8.18
2023-01-09T12:27:19.168Z,8.15
2023-01-09T12:29:51.656Z,8.12
2023-01-09T12:32:34.992Z,8.12
2023-01-09T12:35:00.940Z,8.11
2023-01-09T12:37:34.881Z,8.11
2023-01-09T12:39:55.724Z,8.15
2023-01-09T12:42:21.275Z,8.21
2023-01-09T12:44:41.020Z,8.24
2023-01-09T12:46:49.557Z,8.25
2023-01-09T12:49:35.195Z,8.29
2023-01-09T12:51:43.931Z,8.33
2023-01-09T12:54:00.249Z,8.31
2023-01-09T12:56:18.338Z,8.27
2023-01-09T12:58:32.215Z,8.26
2023-01-09T13:00:42.599Z,8.25
2023-01-09T13:03:07.279Z,8.25
2023-01-09T13:05:26.517Z,8.24
2023-01-09T13:07:43.189Z,8.23
2023-01-09T13:10:25.348Z,8.25
2023-01-09T13:12:32.079Z,8.29
2023-01-09T13:14:51.363Z,8.33
2023-01-09T13:16:59.226Z,8.32
2023-01-09T13:19:21.675Z,8.33
2023-01-09T13:21:28.403Z,8.34
2023-01-09T13:23:59.020Z,8.30
2023-01-09T13:26:08.097Z,8.28
2023-01-09T13:28:44.233Z,8.23
2023-01-09T13:30:58.939Z,8.20
2023-01-09T13:33:21.354Z,8.15
2023-01-09T13:35:24.641Z,8.12
2023-01-09T13:37:32.514Z,8.09
2023-01-09T13:39:46.413Z,8.05
2023-01-09T13:42:22.206Z,8.04
2023-01-09T13:44:29.036Z,8.06
2023-01-09T13:46:44.586Z,8.06
2023-01-09T13:48:47.281Z,8.08
2023-01-09T13:50:51.176Z,8.09
2023-01-09T13:52:56.712Z,8.11
2023-01-09T13:55:28.488Z,8.13
2023-01-09T13:57:37.297Z,8.13
2023-01-09T13:59:40.141Z,8.12
2023-01-09T14:01:43.445Z,8.11
2023-01-09T14:06:32.895Z,8.08
2023-01-09T14:08:36.246Z,8.06
2023-01-09T14:10:45.057Z,8.05
2023-01-09T14:12:48.538Z,8.04
2023-01-09T14:14:53.980Z,8.06
2023-01-09T14:17:03.337Z,8.06
2023-01-09T14:19:20.353Z,8.09
2023-01-09T14:21:55.961Z,8.12
2023-01-09T14:24:07.286Z,8.15
2023-01-09T14:26:28.986Z,8.19
2023-01-09T14:28:36.408Z,8.18
2023-01-09T14:30:54.375Z,8.17
2023-01-09T14:33:02.296Z,8.13
2023-01-09T14:35:08.367Z,8.13
2023-01-09T14:37:14.625Z,8.12
2023-01-09T14:39:20.773Z,8.10
2023-01-09T14:42:00.534Z,8.10
2023-01-09T14:44:06.599Z,8.09
2023-01-09T14:46:13.110Z,8.05
2023-01-09T14:48:17.025Z,8.05
2023-01-09T14:50:38.995Z,8.06
2023-01-09T14:52:51.105Z,8.08
2023-01-09T14:55:02.031Z,8.09
2023-01-09T14:57:27.377Z,8.10
2023-01-09T14:59:30.377Z,8.11
2023-01-09T15:01:35.969Z,8.12
2023-01-09T15:03:44.749Z,8.09
2023-01-09T15:05:49.561Z,8.07
2023-01-09T15:08:00.145Z,8.07
2023-01-09T15:10:04.609Z,8.09
2023-01-09T15:12:10.391Z,8.08
2023-01-09T15:14:30.942Z,8.08
2023-01-09T15:16:33.811Z,8.08
2023-01-09T15:18:42.713Z,8.07
2023-01-09T15:20:45.932Z,8.06
2023-01-09T15:22:51.181Z,8.08
2023-01-09T15:24:56.450Z,8.12
2023-01-09T15:27:05.706Z,8.15
2023-01-09T15:29:17.622Z,8.17
2023-01-09T15:31:23.948Z,8.19
2023-01-09T15:33:27.069Z,8.22
2023-01-09T15:35:30.422Z,8.23
2023-01-09T15:37:39.187Z,8.25
2023-01-09T15:39:42.265Z,8.25
2023-01-09T15:42:05.389Z,8.24
2023-01-09T15:44:15.295Z,8.24
2023-01-09T15:46:18.188Z,8.22
2023-01-09T15:48:29.949Z,8.18
2023-01-09T15:50:32.625Z,8.13
2023-01-09T15:52:35.268Z,8.07
2023-01-09T15:54:39.998Z,8.02
2023-01-09T15:56:45.773Z,8.02
2023-01-09T15:58:52.931Z,8.02
2023-01-09T16:01:00.863Z,8.00
2023-01-09T16:03:17.481Z,7.98
2023-01-09T16:05:20.649Z,7.94
2023-01-09T16:07:23.304Z,7.93
2023-01-09T16:09:29.464Z,7.91
2023-01-09T16:11:36.096Z,7.91
2023-01-09T16:13:46.952Z,7.90
2023-01-09T16:16:04.767Z,7.88
2023-01-09T16:18:16.151Z,7.85
2023-01-09T16:20:25.889Z,7.83
2023-01-09T16:22:32.970Z,7.81
2023-01-09T16:24:42.171Z,7.83
2023-01-09T16:26:44.763Z,7.82
2023-01-09T16:28:47.751Z,7.82
2023-01-09T16:30:54.853Z,7.81
2023-01-09T16:32:58.359Z,7.79
2023-01-09T16:35:13.497Z,7.78
2023-01-09T16:37:16.156Z,7.77
2023-01-09T16:39:21.676Z,7.76
2023-01-09T16:41:43.089Z,7.77
2023-01-09T16:43:46.451Z,7.78
2023-01-09T16:45:51.667Z,7.77
2023-01-09T16:47:55.678Z,7.72
2023-01-09T16:50:07.584Z,7.69
2023-01-09T16:52:17.448Z,7.64
2023-01-09T16:54:20.845Z,7.59
2023-01-09T16:56:26.518Z,7.57
2023-01-09T16:58:32.424Z,7.55
2023-01-09T17:00:34.978Z,7.52
2023-01-09T17:02:37.701Z,7.49
2023-01-09T17:04:40.338Z,7.48
2023-01-09T17:06:44.473Z,7.48
2023-01-09T17:08:47.273Z,7.46
2023-01-09T17:10:51.904Z,7.44
2023-01-09T17:12:54.716Z,7.41
2023-01-09T17:15:06.318Z,7.40
2023-01-09T17:17:12.652Z,7.37
2023-01-09T17:19:18.777Z,7.32
2023-01-09T17:21:29.153Z,7.29
2023-01-09T17:23:32.082Z,7.25
2023-01-09T17:25:53.756Z,7.22
2023-01-09T17:28:15.297Z,7.18
2023-01-09T17:30:19.603Z,7.17
2023-01-09T17:32:22.589Z,7.17
2023-01-09T17:34:25.295Z,7.18
2023-01-09T17:36:32.487Z,7.17
2023-01-09T17:38:55.524Z,7.16
2023-01-09T17:40:58.691Z,7.15
2023-01-09T17:43:01.314Z,7.15
2023-01-09T17:45:04.578Z,7.13
2023-01-09T17:47:17.871Z,7.14
2023-01-09T17:49:22.364Z,7.15
2023-01-09T17:51:25.839Z,7.16
2023-01-09T17:53:30.034Z,7.18
2023-01-09T17:55:34.875Z,7.19
2023-01-09T17:57:37.835Z,7.23
2023-01-09T18:02:17.375Z,7.24
2023-01-09T18:04:21.359Z,7.24
2023-01-09T18:06:24.942Z,7.24
2023-01-09T18:08:30.588Z,7.26
2023-01-09T18:10:36.060Z,7.25
2023-01-09T18:12:39.019Z,7.25
2023-01-09T18:14:45.430Z,7.24
2023-01-09T18:16:49.018Z,7.22
2023-01-09T18:18:53.671Z,7.22
2023-01-09T18:20:56.960Z,7.21
2023-01-09T18:22:59.748Z,7.20
2023-01-09T18:25:06.210Z,7.18
2023-01-09T18:27:09.597Z,7.15
2023-01-09T18:29:14.055Z,7.15
2023-01-09T18:31:23.053Z,7.19
2023-01-09T18:33:29.691Z,7.21
2023-01-09T18:35:36.256Z,7.23
2023-01-09T18:37:39.427Z,7.26
2023-01-09T18:39:41.951Z,7.27
2023-01-09T18:41:47.309Z,7.28
2023-01-09T18:43:51.747Z,7.28
2023-01-09T18:45:55.509Z,7.27
2023-01-09T18:48:00.780Z,7.25
2023-01-09T18:50:03.808Z,7.21
2023-01-09T18:52:08.949Z,7.23
2023-01-09T18:54:13.508Z,7.23
2023-01-09T18:56:19.367Z,7.24
2023-01-09T18:58:22.324Z,7.24
2023-01-09T19:00:25.994Z,7.24
2023-01-09T19:02:29.263Z,7.24
2023-01-09T19:04:32.245Z,7.25
2023-01-09T19:06:35.097Z,7.26
2023-01-09T19:08:38.960Z,7.29
2023-01-09T19:10:42.531Z,7.30
2023-01-09T19:12:46.573Z,7.30
2023-01-09T19:14:56.659Z,7.31
2023-01-09T19:17:02.291Z,7.33
2023-01-09T19:19:06.852Z,7.31
2023-01-09T19:21:11.309Z,7.30
2023-01-09T19:23:14.188Z,7.28
2023-01-09T19:25:16.979Z,7.27
2023-01-09T19:27:20.168Z,7.26
2023-01-09T19:29:25.251Z,7.24
2023-01-09T19:31:33.461Z,7.21
2023-01-09T19:33:40.143Z,7.19
2023-01-09T19:35:48.797Z,7.19
2023-01-09T19:37:52.195Z,7.20
2023-01-09T19:39:54.702Z,7.21
2023-01-09T19:41:57.982Z,7.21
2023-01-09T19:44:00.903Z,7.22
2023-01-09T19:46:14.255Z,7.24
2023-01-09T19:48:30.938Z,7.25
2023-01-09T19:50:40.545Z,7.24
2023-01-09T19:52:45.317Z,7.24
2023-01-09T19:54:48.465Z,7.26
2023-01-09T19:56:53.080Z,7.28
2023-01-09T19:58:59.044Z,7.28
2023-01-09T20:01:31.736Z,7.27
2023-01-09T20:03:43.742Z,7.26
2023-01-09T20:05:46.384Z,7.25
2023-01-09T20:07:54.463Z,7.28
2023-01-09T20:09:57.710Z,7.30
2023-01-09T20:12:01.982Z,7.31
2023-01-09T20:14:05.261Z,7.30
2023-01-09T20:16:16.617Z,7.35
2023-01-09T20:18:19.669Z,7.36
2023-01-09T20:20:26.225Z,7.39
2023-01-09T20:22:29.266Z,7.38
2023-01-09T20:24:32.078Z,7.38
2023-01-09T20:26:42.784Z,7.36
2023-01-09T20:28:46.819Z,7.35
2023-01-09T20:30:55.153Z,7.36
2023-01-09T20:33:02.159Z,7.34
2023-01-09T20:35:05.470Z,7.31
2023-01-09T20:37:08.915Z,7.28
2023-01-09T20:39:12.343Z,7.29
2023-01-09T20:41:23.048Z,7.30
2023-01-09T20:43:27.781Z,7.32
2023-01-09T20:45:33.275Z,7.31
2023-01-09T20:47:35.906Z,7.31
2023-01-09T20:49:41.561Z,7.31
2023-01-09T20:51:50.184Z,7.28
2023-01-09T20:53:55.983Z,7.25
2023-01-09T20:56:03.803Z,7.23
2023-01-09T20:58:06.603Z,7.20
2023-01-09T21:00:09.874Z,7.12
2023-01-09T21:02:14.854Z,7.06
2023-01-09T21:04:21.180Z,6.98
2023-01-09T21:06:26.982Z,6.94
2023-01-09T21:08:30.551Z,6.91
2023-01-09T21:10:36.504Z,6.86
2023-01-09T21:12:45.050Z,6.77
2023-01-09T21:14:47.575Z,6.73
2023-01-09T21:16:54.437Z,6.73
2023-01-09T21:18:58.210Z,6.71
2023-01-09T21:21:13.163Z,6.70
2023-01-09T21:23:15.811Z,6.71
2023-01-09T21:25:18.584Z,6.74
2023-01-09T21:27:21.511Z,6.76
2023-01-09T21:29:24.279Z,6.78
2023-01-09T21:31:35.187Z,6.85
2023-01-09T21:33:41.048Z,6.90
2023-01-09T21:35:44.033Z,6.95
2023-01-09T21:37:46.676Z,6.98
2023-01-09T21:39:49.328Z,7.00
2023-01-09T21:42:11.681Z,7.01
2023-01-09T21:44:40.692Z,7.02
2023-01-09T21:46:51.631Z,7.01
2023-01-09T21:48:55.815Z,7.00
2023-01-09T21:51:02.598Z,6.99
2023-01-09T21:53:06.854Z,6.98
2023-01-09T21:55:09.738Z,6.96
2023-01-09T21:57:15.286Z,6.93
2023-01-09T21:59:20.993Z,6.87
2023-01-09T22:01:23.765Z,6.87
2023-01-09T22:03:26.977Z,6.87
2023-01-09T22:05:29.965Z,6.88
2023-01-09T22:07:34.008Z,6.89
2023-01-09T22:09:37.473Z,6.89
2023-01-09T22:11:41.999Z,6.88
2023-01-09T22:13:49.761Z,6.87
2023-01-09T22:15:52.827Z,6.87
2023-01-09T22:17:55.533Z,6.87
2023-01-09T22:19:58.750Z,6.90
2023-01-09T22:22:02.704Z,6.90
2023-01-09T22:24:06.468Z,6.90
2023-01-09T22:26:11.422Z,6.87
2023-01-09T22:28:14.146Z,6.84
2023-01-09T22:30:17.925Z,6.80
2023-01-09T22:32:22.634Z,6.79
2023-01-09T22:34:25.388Z,6.78
2023-01-09T22:36:30.918Z,6.80
2023-01-09T22:38:35.375Z,6.81
2023-01-09T22:40:41.075Z,6.82
2023-01-09T22:42:56.450Z,6.83
2023-01-09T22:45:02.941Z,6.83
2023-01-09T22:47:06.776Z,6.81
2023-01-09T22:49:12.133Z,6.81
2023-01-09T22:51:18.134Z,6.80
2023-01-09T22:53:20.721Z,6.81
2023-01-09T22:55:23.408Z,6.81
2023-01-09T22:57:26.024Z,6.84
2023-01-09T22:59:30.686Z,6.85
2023-01-09T23:01:33.990Z,6.86
2023-01-09T23:03:36.664Z,6.86
2023-01-09T23:05:42.242Z,6.88
2023-01-09T23:07:47.725Z,6.90
2023-01-09T23:09:51.300Z,6.91
2023-01-09T23:12:06.332Z,6.91
2023-01-09T23:14:10.810Z,6.91
2023-01-09T23:16:22.539Z,6.90
2023-01-09T23:18:25.521Z,6.89
2023-01-09T23:20:28.287Z,6.88
2023-01-09T23:22:30.859Z,6.88
2023-01-09T23:24:34.280Z,6.85
2023-01-09T23:26:40.429Z,6.82
2023-01-09T23:28:43.280Z,6.81
2023-01-09T23:30:46.665Z,6.81
2023-01-09T23:32:49.317Z,6.83
2023-01-09T23:34:53.058Z,6.86
2023-01-09T23:36:57.590Z,6.86
2023-01-09T23:39:00.323Z,6.85
2023-01-09T23:41:02.895Z,6.86
2023-01-09T23:43:14.467Z,6.85
2023-01-09T23:45:19.348Z,6.84
2023-01-09T23:47:23.200Z,6.82
2023-01-09T23:49:25.749Z,6.82
2023-01-09T23:51:28.293Z,6.82
2023-01-09T23:53:32.796Z,6.81
2023-01-09T23:55:35.656Z,6.81
2023-01-09T23:57:38.306Z,6.81
2023-01-09T23:59:40.888Z,6.80
